sensor_id;sensor_type;location;lat;lon;timestamp;temperature;humidity
39103;DHT22;24847;48.218;16.414;2022-11-20T00:01:44;0.90;99.90
39103;DHT22;24847;48.218;16.414;2022-11-20T00:06:48;1.00;99.90
39103;DHT22;24847;48.218;16.414;2022-11-20T00:11:50;1.00;99.90
39103;DHT22;24847;48.218;16.414;2022-11-20T00:16:52;0.90;99.90
39103;DHT22;24847;48.218;16.414;2022-11-20T00:21:56;1.00;99.90
39103;DHT22;24847;48.218;16.414;2022-11-20T00:26:58;1.10;99.90
39103;DHT22;24847;48.218;16.414;2022-11-20T00:32:00;1.10;99.90
39103;DHT22;24847;48.218;16.414;2022-11-20T00:37:04;1.00;99.90
39103;DHT22;24847;48.218;16.414;2022-11-20T00:42:06;1.00;99.90
39103;DHT22;24847;48.218;16.414;2022-11-20T00:47:08;1.00;99.90
39103;DHT22;24847;48.218;16.414;2022-11-20T00:52:12;1.00;99.90
39103;DHT22;24847;48.218;16.414;2022-11-20T00:57:14;1.00;99.90
39103;DHT22;24847;48.218;16.414;2022-11-20T01:02:16;0.90;99.90
39103;DHT22;24847;48.218;16.414;2022-11-20T01:07:20;1.00;99.90
39103;DHT22;24847;48.218;16.414;2022-11-20T01:12:22;1.00;99.90
39103;DHT22;24847;48.218;16.414;2022-11-20T01:17:24;0.90;99.90
39103;DHT22;24847;48.218;16.414;2022-11-20T01:22:28;1.10;99.90
39103;DHT22;24847;48.218;16.414;2022-11-20T01:27:30;1.10;99.90
39103;DHT22;24847;48.218;16.414;2022-11-20T01:32:33;1.10;99.90
39103;DHT22;24847;48.218;16.414;2022-11-20T01:37:36;0.90;99.90
39103;DHT22;24847;48.218;16.414;2022-11-20T01:42:46;0.90;99.90
39103;DHT22;24847;48.218;16.414;2022-11-20T01:48:04;1.00;99.90
39103;DHT22;24847;48.218;16.414;2022-11-20T01:53:11;1.00;99.90
39103;DHT22;24847;48.218;16.414;2022-11-20T01:58:15;1.10;99.90
39103;DHT22;24847;48.218;16.414;2022-11-20T02:03:20;0.90;99.90
39103;DHT22;24847;48.218;16.414;2022-11-20T02:08:24;0.80;99.90
39103;DHT22;24847;48.218;16.414;2022-11-20T02:13:26;0.70;99.90
39103;DHT22;24847;48.218;16.414;2022-11-20T02:18:47;0.90;99.90
39103;DHT22;24847;48.218;16.414;2022-11-20T02:24:03;0.90;99.90
39103;DHT22;24847;48.218;16.414;2022-11-20T02:29:07;1.10;99.90
39103;DHT22;24847;48.218;16.414;2022-11-20T02:34:10;1.10;99.90
39103;DHT22;24847;48.218;16.414;2022-11-20T02:39:15;0.90;99.90
39103;DHT22;24847;48.218;16.414;2022-11-20T02:44:18;1.10;99.90
39103;DHT22;24847;48.218;16.414;2022-11-20T02:49:20;1.10;99.90
39103;DHT22;24847;48.218;16.414;2022-11-20T02:54:24;0.80;99.90
39103;DHT22;24847;48.218;16.414;2022-11-20T02:59:26;1.00;99.90
39103;DHT22;24847;48.218;16.414;2022-11-20T03:04:29;1.20;99.90
39103;DHT22;24847;48.218;16.414;2022-11-20T03:09:33;1.30;99.90
39103;DHT22;24847;48.218;16.414;2022-11-20T03:14:35;1.20;99.90
39103;DHT22;24847;48.218;16.414;2022-11-20T03:19:37;1.30;99.90
39103;DHT22;24847;48.218;16.414;2022-11-20T03:24:41;1.30;99.90
39103;DHT22;24847;48.218;16.414;2022-11-20T03:29:43;1.30;99.90
39103;DHT22;24847;48.218;16.414;2022-11-20T03:34:46;1.40;99.90
39103;DHT22;24847;48.218;16.414;2022-11-20T03:39:49;1.30;99.90
39103;DHT22;24847;48.218;16.414;2022-11-20T03:44:51;1.40;99.90
39103;DHT22;24847;48.218;16.414;2022-11-20T03:49:54;1.40;99.90
39103;DHT22;24847;48.218;16.414;2022-11-20T03:54:57;1.20;99.90
39103;DHT22;24847;48.218;16.414;2022-11-20T03:59:59;1.30;99.90
39103;DHT22;24847;48.218;16.414;2022-11-20T04:05:02;1.20;99.90
39103;DHT22;24847;48.218;16.414;2022-11-20T04:10:07;1.10;99.90
39103;DHT22;24847;48.218;16.414;2022-11-20T04:15:09;1.10;99.90
39103;DHT22;24847;48.218;16.414;2022-11-20T04:20:12;1.20;99.90
39103;DHT22;24847;48.218;16.414;2022-11-20T04:25:16;1.10;99.90
39103;DHT22;24847;48.218;16.414;2022-11-20T04:30:18;1.10;99.90
39103;DHT22;24847;48.218;16.414;2022-11-20T04:35:20;1.00;99.90
39103;DHT22;24847;48.218;16.414;2022-11-20T04:40:24;1.20;99.90
39103;DHT22;24847;48.218;16.414;2022-11-20T04:45:26;1.20;99.90
39103;DHT22;24847;48.218;16.414;2022-11-20T04:50:29;1.20;99.90
39103;DHT22;24847;48.218;16.414;2022-11-20T04:55:32;1.20;99.90
39103;DHT22;24847;48.218;16.414;2022-11-20T05:00:34;1.10;99.90
39103;DHT22;24847;48.218;16.414;2022-11-20T05:05:37;1.10;99.90
39103;DHT22;24847;48.218;16.414;2022-11-20T05:10:40;1.20;99.90
39103;DHT22;24847;48.218;16.414;2022-11-20T05:15:43;1.10;99.90
39103;DHT22;24847;48.218;16.414;2022-11-20T05:20:45;1.00;99.90
39103;DHT22;24847;48.218;16.414;2022-11-20T05:25:52;0.90;99.90
39103;DHT22;24847;48.218;16.414;2022-11-20T05:30:54;0.80;99.90
39103;DHT22;24847;48.218;16.414;2022-11-20T05:35:58;0.80;99.90
39103;DHT22;24847;48.218;16.414;2022-11-20T05:41:06;0.90;99.90
39103;DHT22;24847;48.218;16.414;2022-11-20T05:46:12;0.80;99.90
39103;DHT22;24847;48.218;16.414;2022-11-20T05:51:16;0.80;99.90
39103;DHT22;24847;48.218;16.414;2022-11-20T05:56:21;0.70;99.90
39103;DHT22;24847;48.218;16.414;2022-11-20T06:01:25;0.70;99.90
39103;DHT22;24847;48.218;16.414;2022-11-20T06:06:27;0.70;99.90
39103;DHT22;24847;48.218;16.414;2022-11-20T06:11:32;0.70;99.90
39103;DHT22;24847;48.218;16.414;2022-11-20T06:16:34;0.80;99.90
39103;DHT22;24847;48.218;16.414;2022-11-20T06:21:37;0.80;99.90
39103;DHT22;24847;48.218;16.414;2022-11-20T06:26:40;0.60;99.90
39103;DHT22;24847;48.218;16.414;2022-11-20T06:31:43;0.60;99.90
39103;DHT22;24847;48.218;16.414;2022-11-20T06:36:45;0.60;99.90
39103;DHT22;24847;48.218;16.414;2022-11-20T06:41:48;0.70;99.90
39103;DHT22;24847;48.218;16.414;2022-11-20T06:46:51;0.80;99.90
39103;DHT22;24847;48.218;16.414;2022-11-20T06:51:53;0.70;99.90
39103;DHT22;24847;48.218;16.414;2022-11-20T06:56:57;0.80;99.90
39103;DHT22;24847;48.218;16.414;2022-11-20T07:01:59;0.80;99.90
39103;DHT22;24847;48.218;16.414;2022-11-20T07:07:01;0.90;99.90
39103;DHT22;24847;48.218;16.414;2022-11-20T07:12:06;0.80;99.90
39103;DHT22;24847;48.218;16.414;2022-11-20T07:17:08;0.70;99.90
39103;DHT22;24847;48.218;16.414;2022-11-20T07:22:10;0.70;99.90
39103;DHT22;24847;48.218;16.414;2022-11-20T07:27:14;0.80;99.90
39103;DHT22;24847;48.218;16.414;2022-11-20T07:32:16;0.80;99.90
39103;DHT22;24847;48.218;16.414;2022-11-20T07:37:18;0.90;99.90
39103;DHT22;24847;48.218;16.414;2022-11-20T07:42:22;0.80;99.90
39103;DHT22;24847;48.218;16.414;2022-11-20T07:47:24;1.00;99.90
39103;DHT22;24847;48.218;16.414;2022-11-20T07:52:27;0.90;99.90
39103;DHT22;24847;48.218;16.414;2022-11-20T07:57:30;1.00;99.90
39103;DHT22;24847;48.218;16.414;2022-11-20T08:02:33;1.00;99.90
39103;DHT22;24847;48.218;16.414;2022-11-20T08:07:36;1.00;99.90
39103;DHT22;24847;48.218;16.414;2022-11-20T08:12:45;1.00;99.90
39103;DHT22;24847;48.218;16.414;2022-11-20T08:18:07;1.10;99.90
39103;DHT22;24847;48.218;16.414;2022-11-20T08:23:11;1.10;99.90
39103;DHT22;24847;48.218;16.414;2022-11-20T08:28:15;1.20;99.90
39103;DHT22;24847;48.218;16.414;2022-11-20T08:33:18;1.30;99.90
39103;DHT22;24847;48.218;16.414;2022-11-20T08:38:20;1.20;99.90
39103;DHT22;24847;48.218;16.414;2022-11-20T08:43:24;1.10;99.90
39103;DHT22;24847;48.218;16.414;2022-11-20T08:48:26;1.20;99.90
39103;DHT22;24847;48.218;16.414;2022-11-20T08:53:29;1.40;99.90
39103;DHT22;24847;48.218;16.414;2022-11-20T08:58:33;1.40;99.90
39103;DHT22;24847;48.218;16.414;2022-11-20T09:03:35;1.40;99.90
39103;DHT22;24847;48.218;16.414;2022-11-20T09:08:37;1.60;99.90
39103;DHT22;24847;48.218;16.414;2022-11-20T09:13:41;1.40;99.90
39103;DHT22;24847;48.218;16.414;2022-11-20T09:18:43;1.50;99.90
39103;DHT22;24847;48.218;16.414;2022-11-20T09:23:45;1.60;99.90
39103;DHT22;24847;48.218;16.414;2022-11-20T09:28:49;1.50;99.90
39103;DHT22;24847;48.218;16.414;2022-11-20T09:35:09;1.60;99.90
39103;DHT22;24847;48.218;16.414;2022-11-20T09:40:19;1.50;99.90
39103;DHT22;24847;48.218;16.414;2022-11-20T09:45:24;1.40;99.90
39103;DHT22;24847;48.218;16.414;2022-11-20T09:50:45;1.30;99.90
39103;DHT22;24847;48.218;16.414;2022-11-20T09:55:49;1.50;99.90
39103;DHT22;24847;48.218;16.414;2022-11-20T10:00:52;1.70;99.90
39103;DHT22;24847;48.218;16.414;2022-11-20T10:06:00;1.20;99.90
39103;DHT22;24847;48.218;16.414;2022-11-20T10:11:07;1.40;99.90
39103;DHT22;24847;48.218;16.414;2022-11-20T10:16:24;1.60;99.90
39103;DHT22;24847;48.218;16.414;2022-11-20T10:21:40;1.60;99.90
39103;DHT22;24847;48.218;16.414;2022-11-20T10:26:55;1.60;99.90
39103;DHT22;24847;48.218;16.414;2022-11-20T10:32:03;1.50;99.90
39103;DHT22;24847;48.218;16.414;2022-11-20T10:37:14;1.70;99.90
39103;DHT22;24847;48.218;16.414;2022-11-20T10:42:20;1.90;99.90
39103;DHT22;24847;48.218;16.414;2022-11-20T10:47:31;2.10;99.90
39103;DHT22;24847;48.218;16.414;2022-11-20T10:52:40;2.40;99.90
39103;DHT22;24847;48.218;16.414;2022-11-20T10:57:52;2.50;99.90
39103;DHT22;24847;48.218;16.414;2022-11-20T11:02:56;2.50;99.90
39103;DHT22;24847;48.218;16.414;2022-11-20T11:08:05;2.50;99.90
39103;DHT22;24847;48.218;16.414;2022-11-20T11:13:23;2.70;99.90
39103;DHT22;24847;48.218;16.414;2022-11-20T11:18:28;2.80;99.90
39103;DHT22;24847;48.218;16.414;2022-11-20T11:23:35;2.80;99.90
39103;DHT22;24847;48.218;16.414;2022-11-20T11:28:39;2.70;99.90
39103;DHT22;24847;48.218;16.414;2022-11-20T11:33:42;2.80;99.90
39103;DHT22;24847;48.218;16.414;2022-11-20T11:38:48;2.90;99.90
39103;DHT22;24847;48.218;16.414;2022-11-20T11:43:55;2.90;99.90
39103;DHT22;24847;48.218;16.414;2022-11-20T11:49:17;3.10;99.90
39103;DHT22;24847;48.218;16.414;2022-11-20T11:54:24;3.00;99.90
39103;DHT22;24847;48.218;16.414;2022-11-20T11:59:41;2.90;99.90
39103;DHT22;24847;48.218;16.414;2022-11-20T12:04:54;3.00;99.90
39103;DHT22;24847;48.218;16.414;2022-11-20T12:10:02;4.00;99.90
39103;DHT22;24847;48.218;16.414;2022-11-20T12:15:10;4.40;99.90
39103;DHT22;24847;48.218;16.414;2022-11-20T12:20:14;5.00;99.90
39103;DHT22;24847;48.218;16.414;2022-11-20T12:25:21;5.40;99.90
39103;DHT22;24847;48.218;16.414;2022-11-20T12:30:26;5.50;99.90
39103;DHT22;24847;48.218;16.414;2022-11-20T12:35:43;5.30;99.90
39103;DHT22;24847;48.218;16.414;2022-11-20T12:40:57;5.30;99.90
39103;DHT22;24847;48.218;16.414;2022-11-20T12:46:21;5.40;99.90
39103;DHT22;24847;48.218;16.414;2022-11-20T12:52:02;5.50;99.90
39103;DHT22;24847;48.218;16.414;2022-11-20T12:57:23;5.30;99.90
39103;DHT22;24847;48.218;16.414;2022-11-20T13:02:39;5.30;99.90
39103;DHT22;24847;48.218;16.414;2022-11-20T13:07:48;5.50;99.90
39103;DHT22;24847;48.218;16.414;2022-11-20T13:12:58;5.10;99.90
39103;DHT22;24847;48.218;16.414;2022-11-20T13:18:07;5.30;99.90
39103;DHT22;24847;48.218;16.414;2022-11-20T13:23:23;5.40;99.90
39103;DHT22;24847;48.218;16.414;2022-11-20T13:28:30;5.00;99.90
39103;DHT22;24847;48.218;16.414;2022-11-20T13:33:34;5.10;99.90
39103;DHT22;24847;48.218;16.414;2022-11-20T13:38:44;5.00;99.90
39103;DHT22;24847;48.218;16.414;2022-11-20T13:43:52;4.80;99.90
39103;DHT22;24847;48.218;16.414;2022-11-20T13:48:57;4.40;99.90
39103;DHT22;24847;48.218;16.414;2022-11-20T13:54:37;4.50;99.90
39103;DHT22;24847;48.218;16.414;2022-11-20T13:59:57;4.40;99.90
39103;DHT22;24847;48.218;16.414;2022-11-20T14:05:17;4.50;99.90
39103;DHT22;24847;48.218;16.414;2022-11-20T14:10:24;4.70;99.90
39103;DHT22;24847;48.218;16.414;2022-11-20T14:15:31;4.70;99.90
39103;DHT22;24847;48.218;16.414;2022-11-20T14:20:34;4.70;99.90
39103;DHT22;24847;48.218;16.414;2022-11-20T14:25:42;4.80;99.90
39103;DHT22;24847;48.218;16.414;2022-11-20T14:30:49;4.70;99.90
39103;DHT22;24847;48.218;16.414;2022-11-20T14:35:54;4.70;99.90
39103;DHT22;24847;48.218;16.414;2022-11-20T14:41:06;4.70;99.90
39103;DHT22;24847;48.218;16.414;2022-11-20T14:46:17;4.80;99.90
39103;DHT22;24847;48.218;16.414;2022-11-20T14:51:31;4.80;99.90
39103;DHT22;24847;48.218;16.414;2022-11-20T14:56:35;4.70;99.90
39103;DHT22;24847;48.218;16.414;2022-11-20T15:01:40;4.60;99.90
39103;DHT22;24847;48.218;16.414;2022-11-20T15:06:59;4.60;99.90
39103;DHT22;24847;48.218;16.414;2022-11-20T15:12:03;4.60;99.90
39103;DHT22;24847;48.218;16.414;2022-11-20T15:17:10;4.60;99.90
39103;DHT22;24847;48.218;16.414;2022-11-20T15:22:14;4.60;99.90
39103;DHT22;24847;48.218;16.414;2022-11-20T15:27:18;4.50;99.90
39103;DHT22;24847;48.218;16.414;2022-11-20T15:32:22;4.40;99.90
39103;DHT22;24847;48.218;16.414;2022-11-20T15:37:26;4.30;99.90
39103;DHT22;24847;48.218;16.414;2022-11-20T15:42:30;4.20;99.90
39103;DHT22;24847;48.218;16.414;2022-11-20T15:47:36;4.00;99.90
39103;DHT22;24847;48.218;16.414;2022-11-20T15:52:40;4.00;99.90
39103;DHT22;24847;48.218;16.414;2022-11-20T15:57:44;4.00;99.90
39103;DHT22;24847;48.218;16.414;2022-11-20T16:02:49;4.10;99.90
39103;DHT22;24847;48.218;16.414;2022-11-20T16:07:52;4.00;99.90
39103;DHT22;24847;48.218;16.414;2022-11-20T16:12:56;4.00;99.90
39103;DHT22;24847;48.218;16.414;2022-11-20T16:18:19;4.00;99.90
39103;DHT22;24847;48.218;16.414;2022-11-20T16:23:24;4.00;99.90
39103;DHT22;24847;48.218;16.414;2022-11-20T16:28:26;4.00;99.90
39103;DHT22;24847;48.218;16.414;2022-11-20T16:33:32;4.00;99.90
39103;DHT22;24847;48.218;16.414;2022-11-20T16:38:36;4.00;99.90
39103;DHT22;24847;48.218;16.414;2022-11-20T16:43:44;4.00;99.90
39103;DHT22;24847;48.218;16.414;2022-11-20T16:48:55;4.00;99.90
39103;DHT22;24847;48.218;16.414;2022-11-20T16:54:01;4.00;99.90
39103;DHT22;24847;48.218;16.414;2022-11-20T16:59:06;3.90;99.90
39103;DHT22;24847;48.218;16.414;2022-11-20T17:04:12;4.00;99.90
39103;DHT22;24847;48.218;16.414;2022-11-20T17:09:16;3.90;99.90
39103;DHT22;24847;48.218;16.414;2022-11-20T17:14:21;3.80;99.90
39103;DHT22;24847;48.218;16.414;2022-11-20T17:19:26;3.80;99.90
39103;DHT22;24847;48.218;16.414;2022-11-20T17:24:30;3.80;99.90
39103;DHT22;24847;48.218;16.414;2022-11-20T17:29:35;3.80;99.90
39103;DHT22;24847;48.218;16.414;2022-11-20T17:34:40;3.80;99.90
39103;DHT22;24847;48.218;16.414;2022-11-20T17:39:43;3.60;99.90
39103;DHT22;24847;48.218;16.414;2022-11-20T17:44:49;3.60;99.90
39103;DHT22;24847;48.218;16.414;2022-11-20T17:49:54;3.80;99.90
39103;DHT22;24847;48.218;16.414;2022-11-20T17:54:57;3.80;99.90
39103;DHT22;24847;48.218;16.414;2022-11-20T18:00:06;3.70;99.90
39103;DHT22;24847;48.218;16.414;2022-11-20T18:05:14;3.70;99.90
39103;DHT22;24847;48.218;16.414;2022-11-20T18:10:18;3.90;99.90
39103;DHT22;24847;48.218;16.414;2022-11-20T18:15:22;3.90;99.90
39103;DHT22;24847;48.218;16.414;2022-11-20T18:20:28;4.00;99.90
39103;DHT22;24847;48.218;16.414;2022-11-20T18:25:30;4.00;99.90
39103;DHT22;24847;48.218;16.414;2022-11-20T18:30:36;4.00;99.90
39103;DHT22;24847;48.218;16.414;2022-11-20T18:35:41;4.00;99.90
39103;DHT22;24847;48.218;16.414;2022-11-20T18:40:47;3.90;99.90
39103;DHT22;24847;48.218;16.414;2022-11-20T18:46:01;4.00;99.90
39103;DHT22;24847;48.218;16.414;2022-11-20T18:51:07;4.00;99.90
39103;DHT22;24847;48.218;16.414;2022-11-20T18:56:12;4.00;99.90
39103;DHT22;24847;48.218;16.414;2022-11-20T19:01:18;3.80;99.90
39103;DHT22;24847;48.218;16.414;2022-11-20T19:06:23;3.70;99.90
39103;DHT22;24847;48.218;16.414;2022-11-20T19:11:28;3.70;99.90
39103;DHT22;24847;48.218;16.414;2022-11-20T19:16:32;3.70;99.90
39103;DHT22;24847;48.218;16.414;2022-11-20T19:21:37;3.90;99.90
39103;DHT22;24847;48.218;16.414;2022-11-20T19:26:41;3.90;99.90
39103;DHT22;24847;48.218;16.414;2022-11-20T19:31:45;4.00;99.90
39103;DHT22;24847;48.218;16.414;2022-11-20T19:36:49;4.00;99.90
39103;DHT22;24847;48.218;16.414;2022-11-20T19:41:53;3.90;99.90
39103;DHT22;24847;48.218;16.414;2022-11-20T19:46:56;3.90;99.90
39103;DHT22;24847;48.218;16.414;2022-11-20T19:52:02;3.90;99.90
39103;DHT22;24847;48.218;16.414;2022-11-20T19:57:06;4.00;99.90
39103;DHT22;24847;48.218;16.414;2022-11-20T20:02:11;3.90;99.90
39103;DHT22;24847;48.218;16.414;2022-11-20T20:07:15;4.10;99.90
39103;DHT22;24847;48.218;16.414;2022-11-20T20:12:19;4.10;99.90
39103;DHT22;24847;48.218;16.414;2022-11-20T20:17:22;4.20;99.90
39103;DHT22;24847;48.218;16.414;2022-11-20T20:22:27;4.20;99.90
39103;DHT22;24847;48.218;16.414;2022-11-20T20:27:31;4.30;99.90
39103;DHT22;24847;48.218;16.414;2022-11-20T20:32:37;4.20;99.90
39103;DHT22;24847;48.218;16.414;2022-11-20T20:37:43;4.00;99.90
39103;DHT22;24847;48.218;16.414;2022-11-20T20:42:46;3.90;99.90
39103;DHT22;24847;48.218;16.414;2022-11-20T20:47:54;3.60;99.90
39103;DHT22;24847;48.218;16.414;2022-11-20T20:52:59;3.40;99.90
39103;DHT22;24847;48.218;16.414;2022-11-20T20:58:03;3.20;99.90
39103;DHT22;24847;48.218;16.414;2022-11-20T21:03:06;3.00;99.90
39103;DHT22;24847;48.218;16.414;2022-11-20T21:08:11;3.10;99.90
39103;DHT22;24847;48.218;16.414;2022-11-20T21:13:24;3.30;99.90
39103;DHT22;24847;48.218;16.414;2022-11-20T21:18:28;3.30;99.90
39103;DHT22;24847;48.218;16.414;2022-11-20T21:23:34;3.30;99.90
39103;DHT22;24847;48.218;16.414;2022-11-20T21:28:38;3.40;99.90
39103;DHT22;24847;48.218;16.414;2022-11-20T21:33:41;3.10;99.90
39103;DHT22;24847;48.218;16.414;2022-11-20T21:38:47;3.00;99.90
39103;DHT22;24847;48.218;16.414;2022-11-20T21:43:50;3.10;99.90
39103;DHT22;24847;48.218;16.414;2022-11-20T21:48:53;3.20;99.90
39103;DHT22;24847;48.218;16.414;2022-11-20T21:53:57;3.10;99.90
39103;DHT22;24847;48.218;16.414;2022-11-20T21:58:59;3.10;99.90
39103;DHT22;24847;48.218;16.414;2022-11-20T22:04:02;3.00;99.90
39103;DHT22;24847;48.218;16.414;2022-11-20T22:09:06;2.90;99.90
39103;DHT22;24847;48.218;16.414;2022-11-20T22:14:09;2.80;99.90
39103;DHT22;24847;48.218;16.414;2022-11-20T22:19:24;2.60;99.90
39103;DHT22;24847;48.218;16.414;2022-11-20T22:24:28;2.30;99.90
39103;DHT22;24847;48.218;16.414;2022-11-20T22:29:30;2.60;99.90
39103;DHT22;24847;48.218;16.414;2022-11-20T22:34:33;2.70;99.90
39103;DHT22;24847;48.218;16.414;2022-11-20T22:39:37;2.80;99.90
39103;DHT22;24847;48.218;16.414;2022-11-20T22:44:39;2.80;99.90
39103;DHT22;24847;48.218;16.414;2022-11-20T22:49:41;2.60;99.90
39103;DHT22;24847;48.218;16.414;2022-11-20T22:54:45;2.70;99.90
39103;DHT22;24847;48.218;16.414;2022-11-20T22:59:47;2.50;99.90
39103;DHT22;24847;48.218;16.414;2022-11-20T23:04:49;2.40;99.90
39103;DHT22;24847;48.218;16.414;2022-11-20T23:09:53;2.40;99.90
39103;DHT22;24847;48.218;16.414;2022-11-20T23:14:55;2.40;99.90
39103;DHT22;24847;48.218;16.414;2022-11-20T23:19:57;2.50;99.90
39103;DHT22;24847;48.218;16.414;2022-11-20T23:25:01;2.30;99.90
39103;DHT22;24847;48.218;16.414;2022-11-20T23:30:04;2.10;99.90
39103;DHT22;24847;48.218;16.414;2022-11-20T23:35:08;2.20;99.90
39103;DHT22;24847;48.218;16.414;2022-11-20T23:40:12;2.00;99.90
39103;DHT22;24847;48.218;16.414;2022-11-20T23:45:14;2.10;99.90
39103;DHT22;24847;48.218;16.414;2022-11-20T23:50:16;2.20;99.90
39103;DHT22;24847;48.218;16.414;2022-11-20T23:55:20;2.30;99.90
